sensor_id;sensor_type;location;lat;lon;timestamp;P1;durP1;ratioP1;P2;durP2;ratioP2
36391;SDS011;22639;42.690;23.356;2023-01-05T00:02:02;25.37;;;15.10;;
36391;SDS011;22639;42.690;23.356;2023-01-05T00:04:27;23.00;;;14.87;;
36391;SDS011;22639;42.690;23.356;2023-01-05T00:06:52;25.17;;;14.83;;
36391;SDS011;22639;42.690;23.356;2023-01-05T00:09:18;23.17;;;14.17;;
36391;SDS011;22639;42.690;23.356;2023-01-05T00:11:43;26.97;;;15.43;;
36391;SDS011;22639;42.690;23.356;2023-01-05T00:14:31;23.53;;;13.63;;
36391;SDS011;22639;42.690;23.356;2023-01-05T00:17:16;24.60;;;14.67;;
36391;SDS011;22639;42.690;23.356;2023-01-05T00:20:00;23.77;;;14.37;;
36391;SDS011;22639;42.690;23.356;2023-01-05T00:22:45;23.40;;;14.83;;
36391;SDS011;22639;42.690;23.356;2023-01-05T00:25:12;26.80;;;15.03;;
36391;SDS011;22639;42.690;23.356;2023-01-05T00:27:38;25.80;;;14.33;;
36391;SDS011;22639;42.690;23.356;2023-01-05T00:30:04;27.63;;;14.50;;
36391;SDS011;22639;42.690;23.356;2023-01-05T00:32:29;26.30;;;15.10;;
36391;SDS011;22639;42.690;23.356;2023-01-05T00:34:55;27.07;;;14.87;;
36391;SDS011;22639;42.690;23.356;2023-01-05T00:37:24;23.50;;;15.60;;
36391;SDS011;22639;42.690;23.356;2023-01-05T00:39:50;25.27;;;14.60;;
36391;SDS011;22639;42.690;23.356;2023-01-05T00:42:15;27.97;;;15.87;;
36391;SDS011;22639;42.690;23.356;2023-01-05T00:44:41;20.27;;;13.60;;
36391;SDS011;22639;42.690;23.356;2023-01-05T00:47:06;29.43;;;14.83;;
36391;SDS011;22639;42.690;23.356;2023-01-05T00:49:31;24.07;;;13.60;;
36391;SDS011;22639;42.690;23.356;2023-01-05T00:51:56;21.40;;;13.03;;
36391;SDS011;22639;42.690;23.356;2023-01-05T00:54:21;27.17;;;14.40;;
36391;SDS011;22639;42.690;23.356;2023-01-05T00:56:47;23.73;;;14.37;;
36391;SDS011;22639;42.690;23.356;2023-01-05T00:59:15;23.67;;;14.23;;
36391;SDS011;22639;42.690;23.356;2023-01-05T01:01:41;24.00;;;13.83;;
36391;SDS011;22639;42.690;23.356;2023-01-05T01:04:06;20.60;;;13.70;;
36391;SDS011;22639;42.690;23.356;2023-01-05T01:06:31;23.73;;;14.03;;
36391;SDS011;22639;42.690;23.356;2023-01-05T01:08:57;22.73;;;13.73;;
36391;SDS011;22639;42.690;23.356;2023-01-05T01:11:22;23.07;;;13.93;;
36391;SDS011;22639;42.690;23.356;2023-01-05T01:13:47;24.30;;;13.20;;
36391;SDS011;22639;42.690;23.356;2023-01-05T01:16:13;26.33;;;14.80;;
36391;SDS011;22639;42.690;23.356;2023-01-05T01:18:39;24.77;;;14.33;;
36391;SDS011;22639;42.690;23.356;2023-01-05T01:21:05;23.87;;;14.37;;
36391;SDS011;22639;42.690;23.356;2023-01-05T01:23:30;23.83;;;14.40;;
36391;SDS011;22639;42.690;23.356;2023-01-05T01:25:57;22.40;;;13.17;;
36391;SDS011;22639;42.690;23.356;2023-01-05T01:28:23;22.97;;;14.20;;
36391;SDS011;22639;42.690;23.356;2023-01-05T01:30:48;21.33;;;13.40;;
36391;SDS011;22639;42.690;23.356;2023-01-05T01:33:14;20.43;;;14.30;;
36391;SDS011;22639;42.690;23.356;2023-01-05T01:35:39;24.27;;;14.30;;
36391;SDS011;22639;42.690;23.356;2023-01-05T01:38:04;21.10;;;13.23;;
36391;SDS011;22639;42.690;23.356;2023-01-05T01:40:29;20.33;;;13.03;;
36391;SDS011;22639;42.690;23.356;2023-01-05T01:42:57;21.33;;;13.40;;
36391;SDS011;22639;42.690;23.356;2023-01-05T01:45:23;23.87;;;14.07;;
36391;SDS011;22639;42.690;23.356;2023-01-05T01:47:53;19.60;;;14.00;;
36391;SDS011;22639;42.690;23.356;2023-01-05T01:52:57;23.60;;;12.90;;
36391;SDS011;22639;42.690;23.356;2023-01-05T01:55:25;20.37;;;13.67;;
36391;SDS011;22639;42.690;23.356;2023-01-05T01:57:51;21.77;;;12.83;;
36391;SDS011;22639;42.690;23.356;2023-01-05T02:00:16;23.70;;;13.10;;
36391;SDS011;22639;42.690;23.356;2023-01-05T02:02:42;19.97;;;14.30;;
36391;SDS011;22639;42.690;23.356;2023-01-05T02:05:09;24.63;;;15.87;;
36391;SDS011;22639;42.690;23.356;2023-01-05T02:07:42;19.83;;;13.20;;
36391;SDS011;22639;42.690;23.356;2023-01-05T02:10:08;22.73;;;14.20;;
36391;SDS011;22639;42.690;23.356;2023-01-05T02:12:47;25.13;;;14.50;;
36391;SDS011;22639;42.690;23.356;2023-01-05T02:25:16;25.80;;;14.40;;
36391;SDS011;22639;42.690;23.356;2023-01-05T02:35:12;27.00;;;16.87;;
36391;SDS011;22639;42.690;23.356;2023-01-05T02:37:42;35.17;;;19.90;;
36391;SDS011;22639;42.690;23.356;2023-01-05T02:40:14;32.90;;;19.13;;
36391;SDS011;22639;42.690;23.356;2023-01-05T02:42:43;37.27;;;23.50;;
36391;SDS011;22639;42.690;23.356;2023-01-05T02:45:10;37.33;;;21.90;;
36391;SDS011;22639;42.690;23.356;2023-01-05T02:47:42;34.77;;;20.50;;
36391;SDS011;22639;42.690;23.356;2023-01-05T02:50:10;35.30;;;22.13;;
36391;SDS011;22639;42.690;23.356;2023-01-05T02:52:38;36.17;;;19.90;;
36391;SDS011;22639;42.690;23.356;2023-01-05T02:55:04;30.00;;;18.53;;
36391;SDS011;22639;42.690;23.356;2023-01-05T02:57:33;31.47;;;19.77;;
36391;SDS011;22639;42.690;23.356;2023-01-05T03:00:12;31.70;;;18.60;;
36391;SDS011;22639;42.690;23.356;2023-01-05T03:02:38;34.43;;;18.30;;
36391;SDS011;22639;42.690;23.356;2023-01-05T03:05:09;29.63;;;18.53;;
36391;SDS011;22639;42.690;23.356;2023-01-05T03:07:38;33.03;;;18.90;;
36391;SDS011;22639;42.690;23.356;2023-01-05T03:10:06;32.17;;;19.23;;
36391;SDS011;22639;42.690;23.356;2023-01-05T03:12:51;31.13;;;18.47;;
36391;SDS011;22639;42.690;23.356;2023-01-05T03:15:36;32.13;;;18.77;;
36391;SDS011;22639;42.690;23.356;2023-01-05T03:18:06;36.00;;;17.67;;
36391;SDS011;22639;42.690;23.356;2023-01-05T03:20:32;30.50;;;18.57;;
36391;SDS011;22639;42.690;23.356;2023-01-05T03:22:59;28.83;;;17.20;;
36391;SDS011;22639;42.690;23.356;2023-01-05T03:25:43;27.13;;;17.63;;
36391;SDS011;22639;42.690;23.356;2023-01-05T03:28:38;28.50;;;17.33;;
36391;SDS011;22639;42.690;23.356;2023-01-05T03:31:27;28.37;;;16.63;;
36391;SDS011;22639;42.690;23.356;2023-01-05T03:36:58;28.37;;;17.60;;
36391;SDS011;22639;42.690;23.356;2023-01-05T03:39:25;30.03;;;17.17;;
36391;SDS011;22639;42.690;23.356;2023-01-05T03:41:51;24.33;;;14.47;;
36391;SDS011;22639;42.690;23.356;2023-01-05T03:44:17;25.23;;;15.07;;
36391;SDS011;22639;42.690;23.356;2023-01-05T03:46:42;28.03;;;14.87;;
36391;SDS011;22639;42.690;23.356;2023-01-05T03:49:08;27.33;;;14.80;;
36391;SDS011;22639;42.690;23.356;2023-01-05T03:51:33;23.33;;;14.27;;
36391;SDS011;22639;42.690;23.356;2023-01-05T03:53:58;27.43;;;14.60;;
36391;SDS011;22639;42.690;23.356;2023-01-05T03:56:24;26.90;;;16.33;;
36391;SDS011;22639;42.690;23.356;2023-01-05T03:58:49;25.17;;;13.97;;
36391;SDS011;22639;42.690;23.356;2023-01-05T04:01:14;24.80;;;15.80;;
36391;SDS011;22639;42.690;23.356;2023-01-05T04:03:39;25.47;;;15.13;;
36391;SDS011;22639;42.690;23.356;2023-01-05T04:06:05;27.07;;;14.43;;
36391;SDS011;22639;42.690;23.356;2023-01-05T04:08:30;31.67;;;17.27;;
36391;SDS011;22639;42.690;23.356;2023-01-05T04:10:56;31.07;;;18.63;;
36391;SDS011;22639;42.690;23.356;2023-01-05T04:13:22;28.50;;;16.97;;
36391;SDS011;22639;42.690;23.356;2023-01-05T04:15:48;29.50;;;16.33;;
36391;SDS011;22639;42.690;23.356;2023-01-05T04:18:26;37.13;;;23.57;;
36391;SDS011;22639;42.690;23.356;2023-01-05T04:20:55;44.90;;;25.07;;
36391;SDS011;22639;42.690;23.356;2023-01-05T04:23:20;48.20;;;27.90;;
36391;SDS011;22639;42.690;23.356;2023-01-05T04:25:46;60.97;;;32.77;;
36391;SDS011;22639;42.690;23.356;2023-01-05T04:28:11;50.83;;;28.17;;
36391;SDS011;22639;42.690;23.356;2023-01-05T04:30:36;43.60;;;26.47;;
36391;SDS011;22639;42.690;23.356;2023-01-05T04:33:01;49.20;;;26.00;;
36391;SDS011;22639;42.690;23.356;2023-01-05T04:35:27;40.03;;;26.77;;
36391;SDS011;22639;42.690;23.356;2023-01-05T04:37:52;38.13;;;22.37;;
36391;SDS011;22639;42.690;23.356;2023-01-05T04:40:17;43.03;;;23.33;;
36391;SDS011;22639;42.690;23.356;2023-01-05T04:42:42;33.63;;;20.90;;
36391;SDS011;22639;42.690;23.356;2023-01-05T04:45:08;37.30;;;24.57;;
36391;SDS011;22639;42.690;23.356;2023-01-05T04:47:34;40.17;;;25.07;;
36391;SDS011;22639;42.690;23.356;2023-01-05T04:49:59;46.27;;;28.77;;
36391;SDS011;22639;42.690;23.356;2023-01-05T04:52:24;45.80;;;29.00;;
36391;SDS011;22639;42.690;23.356;2023-01-05T04:54:50;50.70;;;30.60;;
36391;SDS011;22639;42.690;23.356;2023-01-05T04:57:15;51.80;;;29.60;;
36391;SDS011;22639;42.690;23.356;2023-01-05T04:59:40;44.83;;;25.70;;
36391;SDS011;22639;42.690;23.356;2023-01-05T05:02:05;50.97;;;28.50;;
36391;SDS011;22639;42.690;23.356;2023-01-05T05:04:30;31.80;;;20.60;;
36391;SDS011;22639;42.690;23.356;2023-01-05T05:06:56;34.40;;;20.30;;
36391;SDS011;22639;42.690;23.356;2023-01-05T05:09:24;35.47;;;19.97;;
36391;SDS011;22639;42.690;23.356;2023-01-05T05:11:50;26.97;;;17.50;;
36391;SDS011;22639;42.690;23.356;2023-01-05T05:14:15;31.10;;;17.83;;
36391;SDS011;22639;42.690;23.356;2023-01-05T05:16:41;28.17;;;17.97;;
36391;SDS011;22639;42.690;23.356;2023-01-05T05:19:08;28.70;;;18.17;;
36391;SDS011;22639;42.690;23.356;2023-01-05T05:21:33;30.80;;;18.70;;
36391;SDS011;22639;42.690;23.356;2023-01-05T05:24:00;34.27;;;18.87;;
36391;SDS011;22639;42.690;23.356;2023-01-05T05:26:25;31.27;;;18.00;;
36391;SDS011;22639;42.690;23.356;2023-01-05T05:28:50;30.80;;;18.40;;
36391;SDS011;22639;42.690;23.356;2023-01-05T05:31:16;32.83;;;18.23;;
36391;SDS011;22639;42.690;23.356;2023-01-05T05:33:41;33.07;;;19.00;;
36391;SDS011;22639;42.690;23.356;2023-01-05T05:36:06;29.27;;;18.13;;
36391;SDS011;22639;42.690;23.356;2023-01-05T05:38:32;28.43;;;16.87;;
36391;SDS011;22639;42.690;23.356;2023-01-05T05:40:57;30.93;;;18.20;;
36391;SDS011;22639;42.690;23.356;2023-01-05T05:43:22;29.43;;;17.90;;
36391;SDS011;22639;42.690;23.356;2023-01-05T05:45:47;30.27;;;16.37;;
36391;SDS011;22639;42.690;23.356;2023-01-05T05:48:12;36.30;;;19.37;;
36391;SDS011;22639;42.690;23.356;2023-01-05T05:50:38;30.80;;;19.10;;
36391;SDS011;22639;42.690;23.356;2023-01-05T05:53:03;36.80;;;18.87;;
36391;SDS011;22639;42.690;23.356;2023-01-05T05:55:28;30.13;;;19.00;;
36391;SDS011;22639;42.690;23.356;2023-01-05T05:57:53;32.10;;;18.43;;
36391;SDS011;22639;42.690;23.356;2023-01-05T06:00:20;29.70;;;18.00;;
36391;SDS011;22639;42.690;23.356;2023-01-05T06:02:47;32.97;;;18.90;;
36391;SDS011;22639;42.690;23.356;2023-01-05T06:05:12;32.00;;;17.63;;
36391;SDS011;22639;42.690;23.356;2023-01-05T06:07:37;33.87;;;19.17;;
36391;SDS011;22639;42.690;23.356;2023-01-05T06:10:03;34.73;;;19.67;;
36391;SDS011;22639;42.690;23.356;2023-01-05T06:12:28;37.67;;;20.70;;
36391;SDS011;22639;42.690;23.356;2023-01-05T06:14:53;33.33;;;18.87;;
36391;SDS011;22639;42.690;23.356;2023-01-05T06:17:20;33.80;;;19.83;;
36391;SDS011;22639;42.690;23.356;2023-01-05T06:19:45;30.17;;;17.20;;
36391;SDS011;22639;42.690;23.356;2023-01-05T06:22:10;29.30;;;17.70;;
36391;SDS011;22639;42.690;23.356;2023-01-05T06:24:36;31.77;;;20.80;;
36391;SDS011;22639;42.690;23.356;2023-01-05T06:27:01;32.87;;;18.27;;
36391;SDS011;22639;42.690;23.356;2023-01-05T06:29:26;35.70;;;19.00;;
36391;SDS011;22639;42.690;23.356;2023-01-05T06:31:51;31.40;;;19.83;;
36391;SDS011;22639;42.690;23.356;2023-01-05T06:34:17;26.73;;;17.73;;
36391;SDS011;22639;42.690;23.356;2023-01-05T06:36:42;33.07;;;18.73;;
36391;SDS011;22639;42.690;23.356;2023-01-05T06:39:08;32.10;;;19.37;;
36391;SDS011;22639;42.690;23.356;2023-01-05T06:41:33;34.90;;;20.87;;
36391;SDS011;22639;42.690;23.356;2023-01-05T06:44:00;32.37;;;19.03;;
36391;SDS011;22639;42.690;23.356;2023-01-05T06:46:25;31.47;;;19.50;;
36391;SDS011;22639;42.690;23.356;2023-01-05T06:48:50;32.80;;;18.83;;
36391;SDS011;22639;42.690;23.356;2023-01-05T06:51:16;31.53;;;18.97;;
36391;SDS011;22639;42.690;23.356;2023-01-05T06:53:41;26.63;;;17.93;;
36391;SDS011;22639;42.690;23.356;2023-01-05T06:56:06;30.47;;;19.07;;
36391;SDS011;22639;42.690;23.356;2023-01-05T06:58:32;34.70;;;21.53;;
36391;SDS011;22639;42.690;23.356;2023-01-05T07:00:57;30.87;;;20.77;;
36391;SDS011;22639;42.690;23.356;2023-01-05T07:03:22;31.47;;;21.53;;
36391;SDS011;22639;42.690;23.356;2023-01-05T07:05:48;38.30;;;25.60;;
36391;SDS011;22639;42.690;23.356;2023-01-05T07:08:13;35.70;;;21.77;;
36391;SDS011;22639;42.690;23.356;2023-01-05T07:10:38;42.40;;;27.07;;
36391;SDS011;22639;42.690;23.356;2023-01-05T07:13:05;69.80;;;49.50;;
36391;SDS011;22639;42.690;23.356;2023-01-05T07:15:30;85.57;;;58.93;;
36391;SDS011;22639;42.690;23.356;2023-01-05T07:17:56;84.97;;;64.20;;
36391;SDS011;22639;42.690;23.356;2023-01-05T07:20:21;83.10;;;55.07;;
36391;SDS011;22639;42.690;23.356;2023-01-05T07:22:46;76.87;;;50.17;;
36391;SDS011;22639;42.690;23.356;2023-01-05T07:25:11;72.93;;;48.93;;
36391;SDS011;22639;42.690;23.356;2023-01-05T07:27:36;70.53;;;45.37;;
36391;SDS011;22639;42.690;23.356;2023-01-05T07:30:02;65.77;;;44.00;;
36391;SDS011;22639;42.690;23.356;2023-01-05T07:32:27;63.47;;;40.80;;
36391;SDS011;22639;42.690;23.356;2023-01-05T07:34:52;64.60;;;42.37;;
36391;SDS011;22639;42.690;23.356;2023-01-05T07:37:18;55.53;;;38.57;;
36391;SDS011;22639;42.690;23.356;2023-01-05T07:39:43;46.23;;;31.27;;
36391;SDS011;22639;42.690;23.356;2023-01-05T07:42:09;52.10;;;33.87;;
36391;SDS011;22639;42.690;23.356;2023-01-05T07:44:34;51.10;;;32.47;;
36391;SDS011;22639;42.690;23.356;2023-01-05T07:47:01;37.53;;;25.07;;
36391;SDS011;22639;42.690;23.356;2023-01-05T07:49:35;29.47;;;20.77;;
36391;SDS011;22639;42.690;23.356;2023-01-05T07:52:01;26.52;;;18.85;;
36391;SDS011;22639;42.690;23.356;2023-01-05T07:54:26;28.77;;;21.60;;
36391;SDS011;22639;42.690;23.356;2023-01-05T07:59:23;31.13;;;17.60;;
36391;SDS011;22639;42.690;23.356;2023-01-05T08:01:48;24.15;;;18.20;;
36391;SDS011;22639;42.690;23.356;2023-01-05T08:04:14;29.05;;;19.17;;
36391;SDS011;22639;42.690;23.356;2023-01-05T08:06:39;28.70;;;17.55;;
36391;SDS011;22639;42.690;23.356;2023-01-05T08:09:04;26.73;;;17.70;;
36391;SDS011;22639;42.690;23.356;2023-01-05T08:11:49;31.45;;;19.75;;
36391;SDS011;22639;42.690;23.356;2023-01-05T08:14:14;25.92;;;18.65;;
36391;SDS011;22639;42.690;23.356;2023-01-05T08:16:42;25.13;;;17.75;;
36391;SDS011;22639;42.690;23.356;2023-01-05T08:19:08;21.60;;;15.32;;
36391;SDS011;22639;42.690;23.356;2023-01-05T08:21:33;21.98;;;16.75;;
36391;SDS011;22639;42.690;23.356;2023-01-05T08:23:59;24.27;;;15.98;;
36391;SDS011;22639;42.690;23.356;2023-01-05T08:26:24;23.27;;;16.60;;
36391;SDS011;22639;42.690;23.356;2023-01-05T08:28:52;23.00;;;15.45;;
36391;SDS011;22639;42.690;23.356;2023-01-05T08:31:21;25.02;;;16.05;;
36391;SDS011;22639;42.690;23.356;2023-01-05T08:33:47;25.75;;;17.33;;
36391;SDS011;22639;42.690;23.356;2023-01-05T08:36:18;27.00;;;16.73;;
36391;SDS011;22639;42.690;23.356;2023-01-05T08:38:44;25.27;;;16.65;;
36391;SDS011;22639;42.690;23.356;2023-01-05T08:41:22;27.83;;;17.80;;
36391;SDS011;22639;42.690;23.356;2023-01-05T08:43:48;27.70;;;19.05;;
36391;SDS011;22639;42.690;23.356;2023-01-05T08:46:14;34.60;;;20.35;;
36391;SDS011;22639;42.690;23.356;2023-01-05T08:48:40;30.70;;;20.75;;
36391;SDS011;22639;42.690;23.356;2023-01-05T08:51:11;36.35;;;21.80;;
36391;SDS011;22639;42.690;23.356;2023-01-05T08:53:36;31.23;;;22.48;;
36391;SDS011;22639;42.690;23.356;2023-01-05T08:56:01;35.50;;;24.15;;
36391;SDS011;22639;42.690;23.356;2023-01-05T08:58:27;34.22;;;22.30;;
36391;SDS011;22639;42.690;23.356;2023-01-05T09:00:52;33.35;;;22.42;;
36391;SDS011;22639;42.690;23.356;2023-01-05T09:03:18;34.97;;;22.85;;
36391;SDS011;22639;42.690;23.356;2023-01-05T09:05:44;33.60;;;22.52;;
36391;SDS011;22639;42.690;23.356;2023-01-05T09:08:09;32.22;;;20.92;;
36391;SDS011;22639;42.690;23.356;2023-01-05T09:10:35;34.30;;;23.30;;
36391;SDS011;22639;42.690;23.356;2023-01-05T09:13:00;33.67;;;22.67;;
36391;SDS011;22639;42.690;23.356;2023-01-05T09:15:25;29.50;;;21.80;;
36391;SDS011;22639;42.690;23.356;2023-01-05T09:17:50;26.73;;;21.17;;
36391;SDS011;22639;42.690;23.356;2023-01-05T09:20:16;27.58;;;20.02;;
36391;SDS011;22639;42.690;23.356;2023-01-05T09:22:42;25.38;;;18.52;;
36391;SDS011;22639;42.690;23.356;2023-01-05T09:25:09;29.35;;;21.15;;
36391;SDS011;22639;42.690;23.356;2023-01-05T09:27:34;34.50;;;21.33;;
36391;SDS011;22639;42.690;23.356;2023-01-05T09:30:00;28.98;;;22.02;;
36391;SDS011;22639;42.690;23.356;2023-01-05T09:32:26;27.40;;;20.63;;
36391;SDS011;22639;42.690;23.356;2023-01-05T09:34:51;28.63;;;20.00;;
36391;SDS011;22639;42.690;23.356;2023-01-05T09:37:16;23.60;;;19.20;;
36391;SDS011;22639;42.690;23.356;2023-01-05T09:39:41;22.27;;;16.65;;
36391;SDS011;22639;42.690;23.356;2023-01-05T09:42:09;28.30;;;17.90;;
36391;SDS011;22639;42.690;23.356;2023-01-05T09:44:38;26.38;;;19.02;;
36391;SDS011;22639;42.690;23.356;2023-01-05T09:47:17;27.30;;;20.25;;
36391;SDS011;22639;42.690;23.356;2023-01-05T09:49:45;25.38;;;19.05;;
36391;SDS011;22639;42.690;23.356;2023-01-05T09:52:12;26.60;;;19.00;;
36391;SDS011;22639;42.690;23.356;2023-01-05T09:54:38;27.95;;;18.85;;
36391;SDS011;22639;42.690;23.356;2023-01-05T09:57:04;28.15;;;19.40;;
36391;SDS011;22639;42.690;23.356;2023-01-05T10:01:58;29.13;;;18.20;;
36391;SDS011;22639;42.690;23.356;2023-01-05T10:04:25;26.48;;;18.92;;
36391;SDS011;22639;42.690;23.356;2023-01-05T10:06:53;25.02;;;17.75;;
36391;SDS011;22639;42.690;23.356;2023-01-05T10:09:22;26.95;;;18.23;;
36391;SDS011;22639;42.690;23.356;2023-01-05T10:14:44;21.98;;;16.58;;
36391;SDS011;22639;42.690;23.356;2023-01-05T10:17:14;24.65;;;17.05;;
36391;SDS011;22639;42.690;23.356;2023-01-05T10:19:40;24.42;;;17.05;;
36391;SDS011;22639;42.690;23.356;2023-01-05T10:27:34;23.88;;;16.55;;
36391;SDS011;22639;42.690;23.356;2023-01-05T10:30:09;22.23;;;16.13;;
36391;SDS011;22639;42.690;23.356;2023-01-05T10:32:56;26.65;;;17.08;;
36391;SDS011;22639;42.690;23.356;2023-01-05T10:35:31;25.52;;;16.63;;
36391;SDS011;22639;42.690;23.356;2023-01-05T10:38:06;22.45;;;15.35;;
36391;SDS011;22639;42.690;23.356;2023-01-05T10:43:17;24.10;;;15.77;;
36391;SDS011;22639;42.690;23.356;2023-01-05T10:45:45;27.35;;;18.55;;
36391;SDS011;22639;42.690;23.356;2023-01-05T10:48:15;26.42;;;18.40;;
36391;SDS011;22639;42.690;23.356;2023-01-05T10:50:43;27.00;;;18.17;;
36391;SDS011;22639;42.690;23.356;2023-01-05T10:55:37;25.52;;;17.90;;
36391;SDS011;22639;42.690;23.356;2023-01-05T10:58:18;23.98;;;16.60;;
36391;SDS011;22639;42.690;23.356;2023-01-05T11:00:44;26.20;;;18.35;;
36391;SDS011;22639;42.690;23.356;2023-01-05T11:03:11;27.08;;;19.45;;
36391;SDS011;22639;42.690;23.356;2023-01-05T11:05:41;26.90;;;18.88;;
36391;SDS011;22639;42.690;23.356;2023-01-05T11:13:41;31.92;;;19.55;;
36391;SDS011;22639;42.690;23.356;2023-01-05T11:24:03;25.30;;;17.50;;
36391;SDS011;22639;42.690;23.356;2023-01-05T11:26:30;29.73;;;18.45;;
36391;SDS011;22639;42.690;23.356;2023-01-05T11:31:21;25.88;;;17.42;;
36391;SDS011;22639;42.690;23.356;2023-01-05T11:33:46;25.77;;;18.20;;
36391;SDS011;22639;42.690;23.356;2023-01-05T11:36:20;31.17;;;19.17;;
36391;SDS011;22639;42.690;23.356;2023-01-05T11:38:49;29.02;;;18.40;;
36391;SDS011;22639;42.690;23.356;2023-01-05T11:41:15;27.52;;;19.65;;
36391;SDS011;22639;42.690;23.356;2023-01-05T11:43:42;27.40;;;18.63;;
36391;SDS011;22639;42.690;23.356;2023-01-05T11:46:10;25.95;;;18.33;;
36391;SDS011;22639;42.690;23.356;2023-01-05T11:48:38;27.60;;;18.30;;
36391;SDS011;22639;42.690;23.356;2023-01-05T11:51:06;25.60;;;18.80;;
36391;SDS011;22639;42.690;23.356;2023-01-05T11:56:03;28.83;;;19.08;;
36391;SDS011;22639;42.690;23.356;2023-01-05T11:59:02;24.52;;;17.35;;
36391;SDS011;22639;42.690;23.356;2023-01-05T12:16:54;23.05;;;14.43;;
36391;SDS011;22639;42.690;23.356;2023-01-05T12:24:26;19.33;;;13.52;;
36391;SDS011;22639;42.690;23.356;2023-01-05T12:44:53;9.82;;;7.70;;
36391;SDS011;22639;42.690;23.356;2023-01-05T12:47:47;10.88;;;6.63;;
36391;SDS011;22639;42.690;23.356;2023-01-05T12:52:40;15.27;;;6.70;;
36391;SDS011;22639;42.690;23.356;2023-01-05T12:55:16;10.85;;;7.00;;
36391;SDS011;22639;42.690;23.356;2023-01-05T12:57:42;11.90;;;7.90;;
36391;SDS011;22639;42.690;23.356;2023-01-05T13:00:16;14.98;;;9.73;;
36391;SDS011;22639;42.690;23.356;2023-01-05T13:02:45;15.00;;;7.90;;
36391;SDS011;22639;42.690;23.356;2023-01-05T13:07:43;11.77;;;8.23;;
36391;SDS011;22639;42.690;23.356;2023-01-05T13:10:18;14.98;;;8.95;;
36391;SDS011;22639;42.690;23.356;2023-01-05T13:12:47;12.55;;;8.70;;
36391;SDS011;22639;42.690;23.356;2023-01-05T13:15:28;14.52;;;7.78;;
36391;SDS011;22639;42.690;23.356;2023-01-05T13:18:00;11.43;;;7.30;;
36391;SDS011;22639;42.690;23.356;2023-01-05T13:23:03;9.70;;;7.25;;
36391;SDS011;22639;42.690;23.356;2023-01-05T13:25:29;13.73;;;7.82;;
36391;SDS011;22639;42.690;23.356;2023-01-05T13:27:56;10.30;;;7.07;;
36391;SDS011;22639;42.690;23.356;2023-01-05T13:30:23;9.88;;;6.78;;
36391;SDS011;22639;42.690;23.356;2023-01-05T13:32:59;8.20;;;6.68;;
36391;SDS011;22639;42.690;23.356;2023-01-05T13:35:29;13.50;;;6.93;;
36391;SDS011;22639;42.690;23.356;2023-01-05T13:40:47;15.15;;;7.80;;
36391;SDS011;22639;42.690;23.356;2023-01-05T13:43:18;15.55;;;8.13;;
36391;SDS011;22639;42.690;23.356;2023-01-05T13:53:48;10.98;;;7.57;;
36391;SDS011;22639;42.690;23.356;2023-01-05T13:58:44;9.50;;;7.00;;
36391;SDS011;22639;42.690;23.356;2023-01-05T14:01:17;10.50;;;6.95;;
36391;SDS011;22639;42.690;23.356;2023-01-05T14:03:47;11.80;;;7.32;;
36391;SDS011;22639;42.690;23.356;2023-01-05T14:06:56;11.48;;;7.22;;
36391;SDS011;22639;42.690;23.356;2023-01-05T14:09:12;11.05;;;7.30;;
36391;SDS011;22639;42.690;23.356;2023-01-05T14:11:39;10.90;;;7.50;;
36391;SDS011;22639;42.690;23.356;2023-01-05T14:14:25;12.10;;;7.05;;
36391;SDS011;22639;42.690;23.356;2023-01-05T14:16:51;10.52;;;6.00;;
36391;SDS011;22639;42.690;23.356;2023-01-05T14:22:43;10.33;;;5.93;;
36391;SDS011;22639;42.690;23.356;2023-01-05T14:24:55;8.02;;;5.85;;
36391;SDS011;22639;42.690;23.356;2023-01-05T14:27:42;9.17;;;7.23;;
36391;SDS011;22639;42.690;23.356;2023-01-05T14:30:21;9.87;;;6.67;;
36391;SDS011;22639;42.690;23.356;2023-01-05T14:32:54;11.47;;;6.90;;
36391;SDS011;22639;42.690;23.356;2023-01-05T14:35:41;14.77;;;6.57;;
36391;SDS011;22639;42.690;23.356;2023-01-05T14:40:40;10.68;;;6.65;;
36391;SDS011;22639;42.690;23.356;2023-01-05T14:43:52;11.33;;;6.47;;
36391;SDS011;22639;42.690;23.356;2023-01-05T14:48:28;17.27;;;7.30;;
36391;SDS011;22639;42.690;23.356;2023-01-05T14:53:58;16.70;;;8.17;;
36391;SDS011;22639;42.690;23.356;2023-01-05T14:56:25;13.97;;;7.80;;
36391;SDS011;22639;42.690;23.356;2023-01-05T15:01:36;12.70;;;7.10;;
36391;SDS011;22639;42.690;23.356;2023-01-05T15:15:05;10.03;;;6.80;;
36391;SDS011;22639;42.690;23.356;2023-01-05T15:33:29;12.67;;;7.80;;
36391;SDS011;22639;42.690;23.356;2023-01-05T15:36:03;11.10;;;7.90;;
36391;SDS011;22639;42.690;23.356;2023-01-05T15:38:29;14.07;;;8.53;;
36391;SDS011;22639;42.690;23.356;2023-01-05T15:41:04;18.23;;;10.97;;
36391;SDS011;22639;42.690;23.356;2023-01-05T15:43:31;15.33;;;10.60;;
36391;SDS011;22639;42.690;23.356;2023-01-05T15:45:56;21.23;;;11.23;;
36391;SDS011;22639;42.690;23.356;2023-01-05T15:48:26;19.07;;;12.37;;
36391;SDS011;22639;42.690;23.356;2023-01-05T15:50:53;18.80;;;12.00;;
36391;SDS011;22639;42.690;23.356;2023-01-05T15:53:29;23.90;;;13.00;;
36391;SDS011;22639;42.690;23.356;2023-01-05T15:55:58;20.47;;;13.23;;
36391;SDS011;22639;42.690;23.356;2023-01-05T15:58:25;18.70;;;10.77;;
36391;SDS011;22639;42.690;23.356;2023-01-05T16:01:10;20.20;;;11.60;;
36391;SDS011;22639;42.690;23.356;2023-01-05T16:03:36;18.77;;;10.97;;
36391;SDS011;22639;42.690;23.356;2023-01-05T16:06:21;18.30;;;10.20;;
36391;SDS011;22639;42.690;23.356;2023-01-05T16:08:48;16.33;;;12.33;;
36391;SDS011;22639;42.690;23.356;2023-01-05T16:11:36;25.80;;;13.23;;
36391;SDS011;22639;42.690;23.356;2023-01-05T16:16:37;21.37;;;14.43;;
36391;SDS011;22639;42.690;23.356;2023-01-05T16:19:14;25.80;;;14.17;;
36391;SDS011;22639;42.690;23.356;2023-01-05T16:21:42;25.97;;;13.73;;
36391;SDS011;22639;42.690;23.356;2023-01-05T16:24:26;17.67;;;13.17;;
36391;SDS011;22639;42.690;23.356;2023-01-05T16:26:53;28.13;;;14.30;;
36391;SDS011;22639;42.690;23.356;2023-01-05T16:29:33;24.00;;;14.27;;
36391;SDS011;22639;42.690;23.356;2023-01-05T16:31:59;30.47;;;14.90;;
36391;SDS011;22639;42.690;23.356;2023-01-05T16:34:24;25.70;;;14.13;;
36391;SDS011;22639;42.690;23.356;2023-01-05T16:39:52;22.33;;;14.83;;
36391;SDS011;22639;42.690;23.356;2023-01-05T16:42:24;27.20;;;15.30;;
36391;SDS011;22639;42.690;23.356;2023-01-05T16:45:38;20.00;;;12.70;;
36391;SDS011;22639;42.690;23.356;2023-01-05T16:47:58;20.27;;;11.33;;
36391;SDS011;22639;42.690;23.356;2023-01-05T16:53:13;19.13;;;13.10;;
36391;SDS011;22639;42.690;23.356;2023-01-05T16:55:39;24.17;;;12.83;;
36391;SDS011;22639;42.690;23.356;2023-01-05T16:58:48;17.70;;;11.93;;
36391;SDS011;22639;42.690;23.356;2023-01-05T17:01:13;14.67;;;11.30;;
36391;SDS011;22639;42.690;23.356;2023-01-05T17:03:45;18.87;;;12.03;;
36391;SDS011;22639;42.690;23.356;2023-01-05T17:06:24;20.77;;;10.17;;
36391;SDS011;22639;42.690;23.356;2023-01-05T17:08:53;16.30;;;10.60;;